sensor_id;sensor_type;location;lat;lon;timestamp;P1;durP1;ratioP1;P2;durP2;ratioP2
22814;SDS011;11574;51.058;13.712;2022-07-01T00:03:52;16.57;;;11.83;;
22814;SDS011;11574;51.058;13.712;2022-07-01T00:08:56;14.63;;;11.70;;
22814;SDS011;11574;51.058;13.712;2022-07-01T00:13:58;15.13;;;11.67;;
22814;SDS011;11574;51.058;13.712;2022-07-01T00:19:02;20.53;;;11.57;;
22814;SDS011;11574;51.058;13.712;2022-07-01T00:24:05;15.43;;;11.37;;
22814;SDS011;11574;51.058;13.712;2022-07-01T00:29:07;16.20;;;12.27;;
22814;SDS011;11574;51.058;13.712;2022-07-01T00:34:11;13.23;;;10.93;;
22814;SDS011;11574;51.058;13.712;2022-07-01T00:39:13;14.87;;;11.07;;
22814;SDS011;11574;51.058;13.712;2022-07-01T00:44:15;16.67;;;11.57;;
22814;SDS011;11574;51.058;13.712;2022-07-01T00:49:19;16.40;;;10.87;;
22814;SDS011;11574;51.058;13.712;2022-07-01T00:54:21;14.73;;;11.50;;
22814;SDS011;11574;51.058;13.712;2022-07-01T00:59:24;14.07;;;10.97;;
22814;SDS011;11574;51.058;13.712;2022-07-01T01:04:28;19.07;;;11.60;;
22814;SDS011;11574;51.058;13.712;2022-07-01T01:09:30;13.77;;;10.47;;
22814;SDS011;11574;51.058;13.712;2022-07-01T01:14:42;13.30;;;9.97;;
22814;SDS011;11574;51.058;13.712;2022-07-01T01:19:46;15.90;;;10.87;;
22814;SDS011;11574;51.058;13.712;2022-07-01T01:24:49;13.60;;;10.73;;
22814;SDS011;11574;51.058;13.712;2022-07-01T01:29:52;16.00;;;11.80;;
22814;SDS011;11574;51.058;13.712;2022-07-01T01:34:54;14.13;;;11.50;;
22814;SDS011;11574;51.058;13.712;2022-07-01T01:39:57;15.47;;;11.43;;
22814;SDS011;11574;51.058;13.712;2022-07-01T01:45:00;17.97;;;11.87;;
22814;SDS011;11574;51.058;13.712;2022-07-01T01:50:03;15.83;;;11.37;;
22814;SDS011;11574;51.058;13.712;2022-07-01T01:55:07;15.17;;;10.47;;
22814;SDS011;11574;51.058;13.712;2022-07-01T02:00:10;13.47;;;10.63;;
22814;SDS011;11574;51.058;13.712;2022-07-01T02:05:14;14.73;;;10.90;;
22814;SDS011;11574;51.058;13.712;2022-07-01T02:10:17;11.80;;;10.30;;
22814;SDS011;11574;51.058;13.712;2022-07-01T02:15:20;11.47;;;10.27;;
22814;SDS011;11574;51.058;13.712;2022-07-01T02:20:23;16.33;;;10.20;;
22814;SDS011;11574;51.058;13.712;2022-07-01T02:25:26;14.40;;;10.10;;
22814;SDS011;11574;51.058;13.712;2022-07-01T02:30:28;15.37;;;9.80;;
22814;SDS011;11574;51.058;13.712;2022-07-01T02:35:35;13.90;;;10.90;;
22814;SDS011;11574;51.058;13.712;2022-07-01T02:40:39;16.13;;;10.50;;
22814;SDS011;11574;51.058;13.712;2022-07-01T02:45:41;16.20;;;9.77;;
22814;SDS011;11574;51.058;13.712;2022-07-01T02:50:43;12.00;;;9.40;;
22814;SDS011;11574;51.058;13.712;2022-07-01T02:55:47;17.67;;;9.67;;
22814;SDS011;11574;51.058;13.712;2022-07-01T03:00:49;12.70;;;8.70;;
22814;SDS011;11574;51.058;13.712;2022-07-01T03:05:53;14.53;;;9.77;;
22814;SDS011;11574;51.058;13.712;2022-07-01T03:10:56;15.40;;;9.93;;
22814;SDS011;11574;51.058;13.712;2022-07-01T03:15:58;17.87;;;9.70;;
22814;SDS011;11574;51.058;13.712;2022-07-01T03:21:00;17.97;;;10.17;;
22814;SDS011;11574;51.058;13.712;2022-07-01T03:26:04;15.77;;;10.37;;
22814;SDS011;11574;51.058;13.712;2022-07-01T03:31:06;16.13;;;9.03;;
22814;SDS011;11574;51.058;13.712;2022-07-01T03:36:08;14.30;;;9.07;;
22814;SDS011;11574;51.058;13.712;2022-07-01T03:41:12;16.90;;;9.10;;
22814;SDS011;11574;51.058;13.712;2022-07-01T03:46:14;12.83;;;8.20;;
22814;SDS011;11574;51.058;13.712;2022-07-01T03:51:17;13.00;;;8.00;;
22814;SDS011;11574;51.058;13.712;2022-07-01T03:56:20;15.83;;;8.30;;
22814;SDS011;11574;51.058;13.712;2022-07-01T04:01:22;10.13;;;7.53;;
22814;SDS011;11574;51.058;13.712;2022-07-01T04:06:25;11.45;;;7.47;;
22814;SDS011;11574;51.058;13.712;2022-07-01T04:11:28;9.48;;;7.22;;
22814;SDS011;11574;51.058;13.712;2022-07-01T04:16:31;11.57;;;7.13;;
22814;SDS011;11574;51.058;13.712;2022-07-01T04:21:33;11.88;;;7.30;;
22814;SDS011;11574;51.058;13.712;2022-07-01T04:26:54;10.23;;;7.30;;
22814;SDS011;11574;51.058;13.712;2022-07-01T04:31:56;13.30;;;9.05;;
22814;SDS011;11574;51.058;13.712;2022-07-01T04:36:59;15.93;;;10.30;;
22814;SDS011;11574;51.058;13.712;2022-07-01T04:42:03;14.90;;;9.03;;
22814;SDS011;11574;51.058;13.712;2022-07-01T04:47:05;13.23;;;8.52;;
22814;SDS011;11574;51.058;13.712;2022-07-01T04:52:07;12.07;;;8.27;;
22814;SDS011;11574;51.058;13.712;2022-07-01T04:57:11;14.65;;;8.00;;
22814;SDS011;11574;51.058;13.712;2022-07-01T05:02:16;10.90;;;6.28;;
22814;SDS011;11574;51.058;13.712;2022-07-01T05:07:18;10.45;;;6.82;;
22814;SDS011;11574;51.058;13.712;2022-07-01T05:12:33;8.68;;;6.45;;
22814;SDS011;11574;51.058;13.712;2022-07-01T05:17:35;11.38;;;7.28;;
22814;SDS011;11574;51.058;13.712;2022-07-01T05:23:00;9.60;;;5.90;;
22814;SDS011;11574;51.058;13.712;2022-07-01T05:28:04;6.78;;;4.97;;
22814;SDS011;11574;51.058;13.712;2022-07-01T05:33:06;8.63;;;5.20;;
22814;SDS011;11574;51.058;13.712;2022-07-01T05:38:08;12.38;;;6.00;;
22814;SDS011;11574;51.058;13.712;2022-07-01T05:43:12;19.83;;;6.70;;
22814;SDS011;11574;51.058;13.712;2022-07-01T05:48:14;16.60;;;6.47;;
22814;SDS011;11574;51.058;13.712;2022-07-01T05:53:17;9.15;;;6.43;;
22814;SDS011;11574;51.058;13.712;2022-07-01T05:58:20;12.13;;;5.93;;
22814;SDS011;11574;51.058;13.712;2022-07-01T06:03:23;10.55;;;6.30;;
22814;SDS011;11574;51.058;13.712;2022-07-01T06:08:25;12.45;;;6.88;;
22814;SDS011;11574;51.058;13.712;2022-07-01T06:13:29;16.38;;;8.13;;
22814;SDS011;11574;51.058;13.712;2022-07-01T06:18:31;13.30;;;8.93;;
22814;SDS011;11574;51.058;13.712;2022-07-01T06:23:33;11.50;;;8.35;;
22814;SDS011;11574;51.058;13.712;2022-07-01T06:28:37;19.17;;;8.32;;
22814;SDS011;11574;51.058;13.712;2022-07-01T06:33:39;12.02;;;7.95;;
22814;SDS011;11574;51.058;13.712;2022-07-01T06:38:41;11.30;;;7.90;;
22814;SDS011;11574;51.058;13.712;2022-07-01T06:43:45;14.18;;;8.13;;
22814;SDS011;11574;51.058;13.712;2022-07-01T06:48:47;11.52;;;8.18;;
22814;SDS011;11574;51.058;13.712;2022-07-01T06:53:49;12.52;;;8.27;;
22814;SDS011;11574;51.058;13.712;2022-07-01T06:58:53;13.98;;;9.70;;
22814;SDS011;11574;51.058;13.712;2022-07-01T07:03:55;14.07;;;9.98;;
22814;SDS011;11574;51.058;13.712;2022-07-01T07:08:57;15.73;;;10.80;;
22814;SDS011;11574;51.058;13.712;2022-07-01T07:14:01;18.50;;;11.13;;
22814;SDS011;11574;51.058;13.712;2022-07-01T07:19:03;17.13;;;11.93;;
22814;SDS011;11574;51.058;13.712;2022-07-01T07:24:05;14.43;;;10.93;;
22814;SDS011;11574;51.058;13.712;2022-07-01T07:29:09;17.95;;;12.20;;
22814;SDS011;11574;51.058;13.712;2022-07-01T07:34:11;13.90;;;10.40;;
22814;SDS011;11574;51.058;13.712;2022-07-01T07:39:13;13.48;;;10.43;;
22814;SDS011;11574;51.058;13.712;2022-07-01T07:44:17;15.37;;;11.17;;
22814;SDS011;11574;51.058;13.712;2022-07-01T07:49:19;19.27;;;12.43;;
22814;SDS011;11574;51.058;13.712;2022-07-01T07:54:21;17.27;;;12.70;;
22814;SDS011;11574;51.058;13.712;2022-07-01T07:59:25;26.60;;;13.87;;
22814;SDS011;11574;51.058;13.712;2022-07-01T08:04:27;18.70;;;12.93;;
22814;SDS011;11574;51.058;13.712;2022-07-01T08:09:29;18.97;;;12.20;;
22814;SDS011;11574;51.058;13.712;2022-07-01T08:14:33;17.77;;;11.60;;
22814;SDS011;11574;51.058;13.712;2022-07-01T08:19:35;17.77;;;11.07;;
22814;SDS011;11574;51.058;13.712;2022-07-01T08:24:37;21.60;;;11.77;;
22814;SDS011;11574;51.058;13.712;2022-07-01T08:29:41;16.90;;;11.17;;
22814;SDS011;11574;51.058;13.712;2022-07-01T08:34:43;18.07;;;11.27;;
22814;SDS011;11574;51.058;13.712;2022-07-01T08:39:45;20.07;;;13.07;;
22814;SDS011;11574;51.058;13.712;2022-07-01T08:44:49;18.90;;;12.50;;
22814;SDS011;11574;51.058;13.712;2022-07-01T08:49:52;16.93;;;11.37;;
22814;SDS011;11574;51.058;13.712;2022-07-01T08:54:54;14.43;;;10.73;;
22814;SDS011;11574;51.058;13.712;2022-07-01T09:00:04;15.67;;;10.83;;
22814;SDS011;11574;51.058;13.712;2022-07-01T09:05:07;15.73;;;10.83;;
22814;SDS011;11574;51.058;13.712;2022-07-01T09:10:15;17.47;;;11.37;;
22814;SDS011;11574;51.058;13.712;2022-07-01T09:15:21;24.87;;;12.63;;
22814;SDS011;11574;51.058;13.712;2022-07-01T09:20:28;17.50;;;11.03;;
22814;SDS011;11574;51.058;13.712;2022-07-01T09:25:32;18.83;;;11.70;;
22814;SDS011;11574;51.058;13.712;2022-07-01T09:30:36;19.80;;;11.33;;
22814;SDS011;11574;51.058;13.712;2022-07-01T09:35:39;20.43;;;11.90;;
22814;SDS011;11574;51.058;13.712;2022-07-01T09:46:08;15.07;;;10.20;;
22814;SDS011;11574;51.058;13.712;2022-07-01T09:51:11;17.20;;;9.13;;
22814;SDS011;11574;51.058;13.712;2022-07-01T09:56:14;18.57;;;10.07;;
22814;SDS011;11574;51.058;13.712;2022-07-01T10:01:17;18.27;;;9.67;;
22814;SDS011;11574;51.058;13.712;2022-07-01T10:06:24;13.17;;;9.27;;
22814;SDS011;11574;51.058;13.712;2022-07-01T10:11:39;14.83;;;8.37;;
22814;SDS011;11574;51.058;13.712;2022-07-01T10:16:46;11.90;;;7.53;;
22814;SDS011;11574;51.058;13.712;2022-07-01T10:21:50;15.57;;;8.60;;
22814;SDS011;11574;51.058;13.712;2022-07-01T10:26:58;12.00;;;7.80;;
22814;SDS011;11574;51.058;13.712;2022-07-01T10:32:08;12.20;;;7.90;;
22814;SDS011;11574;51.058;13.712;2022-07-01T10:37:11;14.23;;;7.63;;
22814;SDS011;11574;51.058;13.712;2022-07-01T10:42:14;11.00;;;7.33;;
22814;SDS011;11574;51.058;13.712;2022-07-01T10:47:17;12.27;;;7.88;;
22814;SDS011;11574;51.058;13.712;2022-07-01T10:52:22;10.32;;;7.40;;
22814;SDS011;11574;51.058;13.712;2022-07-01T10:57:35;9.23;;;7.37;;
22814;SDS011;11574;51.058;13.712;2022-07-01T11:02:40;9.10;;;7.03;;
22814;SDS011;11574;51.058;13.712;2022-07-01T11:07:43;7.27;;;6.40;;
22814;SDS011;11574;51.058;13.712;2022-07-01T11:12:46;7.07;;;6.13;;
22814;SDS011;11574;51.058;13.712;2022-07-01T11:17:51;7.00;;;6.30;;
22814;SDS011;11574;51.058;13.712;2022-07-01T11:22:55;5.03;;;4.53;;
22814;SDS011;11574;51.058;13.712;2022-07-01T11:27:58;10.43;;;4.13;;
22814;SDS011;11574;51.058;13.712;2022-07-01T11:33:02;4.70;;;4.20;;
22814;SDS011;11574;51.058;13.712;2022-07-01T11:38:06;8.20;;;7.13;;
22814;SDS011;11574;51.058;13.712;2022-07-01T11:43:26;10.10;;;7.77;;
22814;SDS011;11574;51.058;13.712;2022-07-01T11:48:31;14.50;;;7.17;;
22814;SDS011;11574;51.058;13.712;2022-07-01T11:53:34;5.20;;;4.50;;
22814;SDS011;11574;51.058;13.712;2022-07-01T11:58:43;7.77;;;4.70;;
22814;SDS011;11574;51.058;13.712;2022-07-01T12:03:47;5.80;;;4.47;;
22814;SDS011;11574;51.058;13.712;2022-07-01T12:08:50;4.50;;;4.10;;
22814;SDS011;11574;51.058;13.712;2022-07-01T12:13:53;6.20;;;3.90;;
22814;SDS011;11574;51.058;13.712;2022-07-01T12:18:58;6.17;;;4.37;;
22814;SDS011;11574;51.058;13.712;2022-07-01T12:24:04;6.23;;;5.20;;
22814;SDS011;11574;51.058;13.712;2022-07-01T12:29:07;7.67;;;5.13;;
22814;SDS011;11574;51.058;13.712;2022-07-01T12:34:11;9.27;;;3.60;;
22814;SDS011;11574;51.058;13.712;2022-07-01T12:39:13;7.60;;;3.23;;
22814;SDS011;11574;51.058;13.712;2022-07-01T12:44:22;5.13;;;3.13;;
22814;SDS011;11574;51.058;13.712;2022-07-01T12:49:26;3.00;;;2.43;;
22814;SDS011;11574;51.058;13.712;2022-07-01T12:54:28;3.87;;;2.60;;
22814;SDS011;11574;51.058;13.712;2022-07-01T12:59:31;4.60;;;2.30;;
22814;SDS011;11574;51.058;13.712;2022-07-01T13:04:34;3.53;;;2.30;;
22814;SDS011;11574;51.058;13.712;2022-07-01T13:09:37;5.40;;;2.43;;
22814;SDS011;11574;51.058;13.712;2022-07-01T13:14:39;2.40;;;2.20;;
22814;SDS011;11574;51.058;13.712;2022-07-01T13:19:42;2.13;;;1.63;;
22814;SDS011;11574;51.058;13.712;2022-07-01T13:24:45;2.30;;;2.00;;
22814;SDS011;11574;51.058;13.712;2022-07-01T13:29:49;5.90;;;2.83;;
22814;SDS011;11574;51.058;13.712;2022-07-01T13:34:53;4.20;;;3.80;;
22814;SDS011;11574;51.058;13.712;2022-07-01T13:39:55;4.57;;;4.10;;
22814;SDS011;11574;51.058;13.712;2022-07-01T13:44:57;5.17;;;4.00;;
22814;SDS011;11574;51.058;13.712;2022-07-01T13:50:01;10.33;;;5.40;;
22814;SDS011;11574;51.058;13.712;2022-07-01T13:55:04;6.97;;;6.27;;
22814;SDS011;11574;51.058;13.712;2022-07-01T14:00:06;7.80;;;6.53;;
22814;SDS011;11574;51.058;13.712;2022-07-01T14:05:10;7.87;;;7.00;;
22814;SDS011;11574;51.058;13.712;2022-07-01T14:10:12;8.73;;;6.87;;
22814;SDS011;11574;51.058;13.712;2022-07-01T14:15:14;10.83;;;7.83;;
22814;SDS011;11574;51.058;13.712;2022-07-01T14:20:18;8.13;;;7.30;;
22814;SDS011;11574;51.058;13.712;2022-07-01T14:25:20;7.97;;;6.00;;
22814;SDS011;11574;51.058;13.712;2022-07-01T14:30:23;12.43;;;7.60;;
22814;SDS011;11574;51.058;13.712;2022-07-01T14:35:26;5.47;;;4.83;;
22814;SDS011;11574;51.058;13.712;2022-07-01T14:40:30;9.07;;;6.30;;
22814;SDS011;11574;51.058;13.712;2022-07-01T14:45:35;3.57;;;2.93;;
22814;SDS011;11574;51.058;13.712;2022-07-01T14:50:40;4.60;;;2.53;;
22814;SDS011;11574;51.058;13.712;2022-07-01T14:55:42;3.30;;;2.53;;
22814;SDS011;11574;51.058;13.712;2022-07-01T15:00:45;3.33;;;2.30;;
22814;SDS011;11574;51.058;13.712;2022-07-01T15:05:48;4.97;;;3.07;;
22814;SDS011;11574;51.058;13.712;2022-07-01T15:10:51;2.27;;;2.00;;
22814;SDS011;11574;51.058;13.712;2022-07-01T15:16:02;3.33;;;1.92;;
22814;SDS011;11574;51.058;13.712;2022-07-01T15:21:06;2.13;;;1.30;;
22814;SDS011;11574;51.058;13.712;2022-07-01T15:26:08;3.53;;;1.70;;
22814;SDS011;11574;51.058;13.712;2022-07-01T15:31:10;2.80;;;1.13;;
22814;SDS011;11574;51.058;13.712;2022-07-01T15:36:14;1.63;;;1.23;;
22814;SDS011;11574;51.058;13.712;2022-07-01T15:41:16;1.40;;;1.23;;
22814;SDS011;11574;51.058;13.712;2022-07-01T15:46:18;3.00;;;1.40;;
22814;SDS011;11574;51.058;13.712;2022-07-01T15:51:22;5.57;;;1.50;;
22814;SDS011;11574;51.058;13.712;2022-07-01T15:56:24;5.30;;;1.50;;
22814;SDS011;11574;51.058;13.712;2022-07-01T16:01:26;4.50;;;2.10;;
22814;SDS011;11574;51.058;13.712;2022-07-01T16:06:30;3.60;;;2.10;;
22814;SDS011;11574;51.058;13.712;2022-07-01T16:11:34;3.63;;;2.00;;
22814;SDS011;11574;51.058;13.712;2022-07-01T16:16:36;2.90;;;2.37;;
22814;SDS011;11574;51.058;13.712;2022-07-01T16:21:40;4.07;;;3.00;;
22814;SDS011;11574;51.058;13.712;2022-07-01T16:26:44;4.43;;;2.83;;
22814;SDS011;11574;51.058;13.712;2022-07-01T16:31:46;5.10;;;3.53;;
22814;SDS011;11574;51.058;13.712;2022-07-01T16:36:51;3.90;;;3.50;;
22814;SDS011;11574;51.058;13.712;2022-07-01T16:41:55;5.67;;;3.50;;
22814;SDS011;11574;51.058;13.712;2022-07-01T16:47:00;6.07;;;3.50;;
22814;SDS011;11574;51.058;13.712;2022-07-01T16:52:06;4.00;;;3.20;;
22814;SDS011;11574;51.058;13.712;2022-07-01T16:57:09;4.73;;;3.70;;
22814;SDS011;11574;51.058;13.712;2022-07-01T17:02:15;5.60;;;3.93;;
22814;SDS011;11574;51.058;13.712;2022-07-01T17:07:19;5.77;;;3.73;;
22814;SDS011;11574;51.058;13.712;2022-07-01T17:12:21;6.20;;;4.47;;
22814;SDS011;11574;51.058;13.712;2022-07-01T17:17:24;9.03;;;3.60;;
22814;SDS011;11574;51.058;13.712;2022-07-01T17:22:32;5.23;;;4.63;;
22814;SDS011;11574;51.058;13.712;2022-07-01T17:27:42;5.73;;;4.77;;
22814;SDS011;11574;51.058;13.712;2022-07-01T17:32:50;8.83;;;4.90;;
22814;SDS011;11574;51.058;13.712;2022-07-01T17:37:57;7.63;;;4.43;;
22814;SDS011;11574;51.058;13.712;2022-07-01T17:43:03;5.67;;;4.60;;
22814;SDS011;11574;51.058;13.712;2022-07-01T17:48:05;5.33;;;4.80;;
22814;SDS011;11574;51.058;13.712;2022-07-01T17:53:09;5.77;;;4.97;;
22814;SDS011;11574;51.058;13.712;2022-07-01T17:58:12;7.07;;;5.30;;
22814;SDS011;11574;51.058;13.712;2022-07-01T18:03:14;6.20;;;5.13;;
22814;SDS011;11574;51.058;13.712;2022-07-01T18:08:18;6.40;;;5.37;;
22814;SDS011;11574;51.058;13.712;2022-07-01T18:13:21;7.50;;;5.20;;
22814;SDS011;11574;51.058;13.712;2022-07-01T18:18:27;9.20;;;5.57;;
22814;SDS011;11574;51.058;13.712;2022-07-01T18:23:32;6.57;;;4.83;;
22814;SDS011;11574;51.058;13.712;2022-07-01T18:28:35;7.80;;;4.90;;
22814;SDS011;11574;51.058;13.712;2022-07-01T18:33:40;6.93;;;5.43;;
22814;SDS011;11574;51.058;13.712;2022-07-01T18:38:45;10.30;;;6.33;;
22814;SDS011;11574;51.058;13.712;2022-07-01T18:43:47;9.50;;;6.20;;
22814;SDS011;11574;51.058;13.712;2022-07-01T18:48:50;10.40;;;6.57;;
22814;SDS011;11574;51.058;13.712;2022-07-01T18:53:54;9.67;;;6.90;;
22814;SDS011;11574;51.058;13.712;2022-07-01T18:58:57;10.90;;;7.23;;
22814;SDS011;11574;51.058;13.712;2022-07-01T19:04:00;11.53;;;8.27;;
22814;SDS011;11574;51.058;13.712;2022-07-01T19:09:04;10.60;;;7.60;;
22814;SDS011;11574;51.058;13.712;2022-07-01T19:14:06;12.10;;;7.90;;
22814;SDS011;11574;51.058;13.712;2022-07-01T19:19:08;10.57;;;8.03;;
22814;SDS011;11574;51.058;13.712;2022-07-01T19:24:11;13.27;;;8.17;;
22814;SDS011;11574;51.058;13.712;2022-07-01T19:29:14;11.30;;;7.67;;
22814;SDS011;11574;51.058;13.712;2022-07-01T19:34:16;13.97;;;8.17;;
22814;SDS011;11574;51.058;13.712;2022-07-01T19:39:19;8.53;;;6.83;;
22814;SDS011;11574;51.058;13.712;2022-07-01T19:44:22;9.90;;;6.87;;
22814;SDS011;11574;51.058;13.712;2022-07-01T19:49:24;8.97;;;6.87;;
22814;SDS011;11574;51.058;13.712;2022-07-01T19:54:28;7.97;;;6.47;;
22814;SDS011;11574;51.058;13.712;2022-07-01T19:59:30;11.77;;;6.93;;
22814;SDS011;11574;51.058;13.712;2022-07-01T20:04:33;14.43;;;6.80;;
22814;SDS011;11574;51.058;13.712;2022-07-01T20:09:37;12.70;;;6.70;;
22814;SDS011;11574;51.058;13.712;2022-07-01T20:14:42;11.03;;;7.10;;
22814;SDS011;11574;51.058;13.712;2022-07-01T20:19:45;9.17;;;6.37;;
22814;SDS011;11574;51.058;13.712;2022-07-01T20:24:50;9.53;;;6.30;;
22814;SDS011;11574;51.058;13.712;2022-07-01T20:29:53;8.73;;;5.93;;
22814;SDS011;11574;51.058;13.712;2022-07-01T20:34:55;7.60;;;5.50;;
22814;SDS011;11574;51.058;13.712;2022-07-01T20:39:58;9.87;;;6.67;;
22814;SDS011;11574;51.058;13.712;2022-07-01T20:45:01;8.03;;;5.80;;
22814;SDS011;11574;51.058;13.712;2022-07-01T20:50:03;8.23;;;5.63;;
22814;SDS011;11574;51.058;13.712;2022-07-01T20:55:07;9.67;;;6.33;;
22814;SDS011;11574;51.058;13.712;2022-07-01T21:00:09;10.30;;;7.10;;
22814;SDS011;11574;51.058;13.712;2022-07-01T21:05:12;10.30;;;6.53;;
22814;SDS011;11574;51.058;13.712;2022-07-01T21:10:15;8.50;;;6.23;;
22814;SDS011;11574;51.058;13.712;2022-07-01T21:15:17;8.20;;;5.60;;
22814;SDS011;11574;51.058;13.712;2022-07-01T21:20:20;8.47;;;5.40;;
22814;SDS011;11574;51.058;13.712;2022-07-01T21:25:23;8.80;;;5.43;;
22814;SDS011;11574;51.058;13.712;2022-07-01T21:30:25;9.07;;;5.53;;
22814;SDS011;11574;51.058;13.712;2022-07-01T21:35:28;13.97;;;5.53;;
22814;SDS011;11574;51.058;13.712;2022-07-01T21:40:32;10.00;;;5.93;;
22814;SDS011;11574;51.058;13.712;2022-07-01T21:45:35;7.40;;;5.80;;
22814;SDS011;11574;51.058;13.712;2022-07-01T21:50:38;8.87;;;5.80;;
22814;SDS011;11574;51.058;13.712;2022-07-01T21:55:42;10.73;;;5.77;;
22814;SDS011;11574;51.058;13.712;2022-07-01T22:00:44;16.53;;;8.83;;
22814;SDS011;11574;51.058;13.712;2022-07-01T22:05:48;10.10;;;5.77;;
22814;SDS011;11574;51.058;13.712;2022-07-01T22:11:09;7.07;;;5.00;;
22814;SDS011;11574;51.058;13.712;2022-07-01T22:16:12;10.10;;;5.63;;
22814;SDS011;11574;51.058;13.712;2022-07-01T22:21:14;7.97;;;5.10;;
22814;SDS011;11574;51.058;13.712;2022-07-01T22:26:20;10.63;;;5.57;;
22814;SDS011;11574;51.058;13.712;2022-07-01T22:31:22;7.17;;;4.67;;
22814;SDS011;11574;51.058;13.712;2022-07-01T22:36:24;10.20;;;4.77;;
22814;SDS011;11574;51.058;13.712;2022-07-01T22:41:28;8.27;;;5.30;;
22814;SDS011;11574;51.058;13.712;2022-07-01T22:46:38;6.97;;;4.97;;
22814;SDS011;11574;51.058;13.712;2022-07-01T22:51:46;6.63;;;4.53;;
22814;SDS011;11574;51.058;13.712;2022-07-01T22:56:52;6.77;;;4.53;;
22814;SDS011;11574;51.058;13.712;2022-07-01T23:01:57;7.10;;;4.70;;
22814;SDS011;11574;51.058;13.712;2022-07-01T23:07:01;6.50;;;4.50;;
22814;SDS011;11574;51.058;13.712;2022-07-01T23:12:06;8.63;;;4.47;;
22814;SDS011;11574;51.058;13.712;2022-07-01T23:17:11;6.10;;;5.50;;
22814;SDS011;11574;51.058;13.712;2022-07-01T23:22:14;9.33;;;6.00;;
22814;SDS011;11574;51.058;13.712;2022-07-01T23:27:18;7.00;;;5.17;;
22814;SDS011;11574;51.058;13.712;2022-07-01T23:32:21;6.20;;;4.97;;
22814;SDS011;11574;51.058;13.712;2022-07-01T23:37:24;7.90;;;5.50;;
22814;SDS011;11574;51.058;13.712;2022-07-01T23:42:28;15.30;;;5.50;;
22814;SDS011;11574;51.058;13.712;2022-07-01T23:47:30;10.60;;;5.23;;
22814;SDS011;11574;51.058;13.712;2022-07-01T23:52:34;10.90;;;4.93;;
22814;SDS011;11574;51.058;13.712;2022-07-01T23:57:41;11.77;;;5.10;;
